Sanford, MI (48657)

7:08 PM EDT on July 29, 2016 (GMT -0400)
Meridian Public Schools, Sanford MI | | Change Station

Elev 663 ft 43.71 °N, 84.37 °W | Updated 9 minutes ago

Clear
Clear
73.0 °F
Feels Like 75 °F
N
4.3
Wind Variable Wind from North

Today
High -- | Low -- °F
--% Chance of Precip.
Yesterday
High -- | Low -- °F
Precip. -- in
Pressure 30.02 in
Visibility 10.0 miles
Clouds Clear
Heat Index 75 °F
Dew Point 63 °F
Humidity 72%
Rainfall Not available.
Snow Depth Not available.
6:23 AM 9:03 PM
Waning Crescent, 18% visible
METAR KIKW 292253Z AUTO 07009KT 10SM CLR 21/15 A3002 RMK AO2 T02130146
Pressure 30.02 in
Visibility 10.0 miles
Clouds Clear
Heat Index 75 °F
Dew Point 63 °F
Humidity 72%
Rainfall Not available.
Snow Depth Not available.
6:23 AM 9:03 PM
Waning Crescent, 18% visible
METAR KIKW 292253Z AUTO 07009KT 10SM CLR 21/15 A3002 RMK AO2 T02130146

10-Day Weather Forecast

Almanac

Astronomy

Jul. 29, 2016 Rise Set
Actual Time
Civil Twilight
Nautical Twilight
Astronomical Twilight
Moon
Length of Visible Light
Length of Day
Tomorrow will be .
, % of the Moon is Illuminated

Today's Extremes

State Highs State Lows

Community

WunderPhotos

Upload Photos

1,928,437 photos uploaded!

WunderBlog® & News

Nearby

Air Quality

  Air Quality AQ Index Pollutant
Not available.

Snow Depth

Station Depth Elevation

Earthquake Activity

City Distance Mag. Time & Date
Minimum magnitude displayed is 2.5.

Coastal Water Temperatures

Place Temperature

Stations

Nearby Weather Stations

Station Location Temp. Windchill Dew Point Humidity Wind Precip. Elev Updated Type
                   

Watches & Warnings

There are currently no watches in effect.